sensor_id;sensor_type;location;lat;lon;timestamp;pressure;altitude;pressure_sealevel;temperature;humidity
9474;BME280;8865;47.636;7.692;2022-07-23T00:01:20;98295.84;;;23.36;nan
9474;BME280;8865;47.636;7.692;2022-07-23T00:03:46;98306.97;;;23.33;nan
9474;BME280;8865;47.636;7.692;2022-07-23T00:06:13;98313.97;;;23.27;nan
9474;BME280;8865;47.636;7.692;2022-07-23T00:08:39;98313.81;;;23.22;nan
9474;BME280;8865;47.636;7.692;2022-07-23T00:11:05;98312.16;;;23.21;nan
9474;BME280;8865;47.636;7.692;2022-07-23T00:13:31;98320.41;;;23.20;nan
9474;BME280;8865;47.636;7.692;2022-07-23T00:15:57;98336.84;;;23.16;nan
9474;BME280;8865;47.636;7.692;2022-07-23T00:18:23;98339.09;;;23.13;nan
9474;BME280;8865;47.636;7.692;2022-07-23T00:20:49;98317.34;;;23.54;nan
9474;BME280;8865;47.636;7.692;2022-07-23T00:23:15;98298.69;;;24.05;nan
9474;BME280;8865;47.636;7.692;2022-07-23T00:25:41;98310.88;;;23.30;nan
9474;BME280;8865;47.636;7.692;2022-07-23T00:28:07;98314.66;;;23.09;nan
9474;BME280;8865;47.636;7.692;2022-07-23T00:30:33;98310.97;;;23.10;nan
9474;BME280;8865;47.636;7.692;2022-07-23T00:33:01;98311.16;;;23.15;nan
9474;BME280;8865;47.636;7.692;2022-07-23T00:35:31;98304.78;;;23.16;nan
9474;BME280;8865;47.636;7.692;2022-07-23T00:37:59;98301.69;;;23.13;nan
9474;BME280;8865;47.636;7.692;2022-07-23T00:40:26;98295.53;;;23.12;nan
9474;BME280;8865;47.636;7.692;2022-07-23T00:42:52;98277.88;;;23.05;nan
9474;BME280;8865;47.636;7.692;2022-07-23T00:45:18;98287.53;;;22.99;nan
9474;BME280;8865;47.636;7.692;2022-07-23T00:47:45;98273.81;;;22.95;nan
9474;BME280;8865;47.636;7.692;2022-07-23T00:50:11;98279.16;;;22.95;nan
9474;BME280;8865;47.636;7.692;2022-07-23T00:52:38;98280.59;;;22.98;nan
9474;BME280;8865;47.636;7.692;2022-07-23T00:55:06;98272.16;;;22.94;nan
9474;BME280;8865;47.636;7.692;2022-07-23T00:57:32;98286.34;;;22.95;nan
9474;BME280;8865;47.636;7.692;2022-07-23T00:59:59;98302.38;;;22.95;nan
9474;BME280;8865;47.636;7.692;2022-07-23T01:02:26;98291.69;;;22.95;nan
9474;BME280;8865;47.636;7.692;2022-07-23T01:04:53;98268.28;;;22.90;nan
9474;BME280;8865;47.636;7.692;2022-07-23T01:07:19;98282.66;;;22.89;nan
9474;BME280;8865;47.636;7.692;2022-07-23T01:09:45;98291.31;;;22.85;nan
9474;BME280;8865;47.636;7.692;2022-07-23T01:12:12;98300.56;;;22.89;nan
9474;BME280;8865;47.636;7.692;2022-07-23T01:14:38;98308.97;;;22.86;nan
9474;BME280;8865;47.636;7.692;2022-07-23T01:17:04;98295.41;;;22.80;nan
9474;BME280;8865;47.636;7.692;2022-07-23T01:19:30;98276.72;;;22.80;nan
9474;BME280;8865;47.636;7.692;2022-07-23T01:21:57;98254.13;;;22.83;nan
9474;BME280;8865;47.636;7.692;2022-07-23T01:24:24;98243.66;;;22.81;nan
9474;BME280;8865;47.636;7.692;2022-07-23T01:26:50;98256.63;;;22.78;nan
9474;BME280;8865;47.636;7.692;2022-07-23T01:29:16;98246.78;;;22.72;nan
9474;BME280;8865;47.636;7.692;2022-07-23T01:31:43;98239.97;;;22.76;nan
9474;BME280;8865;47.636;7.692;2022-07-23T01:34:10;98253.16;;;22.71;nan
9474;BME280;8865;47.636;7.692;2022-07-23T01:36:36;98261.59;;;22.68;nan
9474;BME280;8865;47.636;7.692;2022-07-23T01:39:04;98275.53;;;22.70;nan
9474;BME280;8865;47.636;7.692;2022-07-23T01:41:30;98290.13;;;22.67;nan
9474;BME280;8865;47.636;7.692;2022-07-23T01:43:56;98303.28;;;22.62;nan
9474;BME280;8865;47.636;7.692;2022-07-23T01:46:22;98301.66;;;22.61;nan
9474;BME280;8865;47.636;7.692;2022-07-23T01:48:48;98273.13;;;22.55;nan
9474;BME280;8865;47.636;7.692;2022-07-23T01:51:14;98259.19;;;22.46;nan
9474;BME280;8865;47.636;7.692;2022-07-23T01:53:40;98267.41;;;22.44;nan
9474;BME280;8865;47.636;7.692;2022-07-23T01:56:07;98282.41;;;22.32;nan
9474;BME280;8865;47.636;7.692;2022-07-23T01:58:33;98278.50;;;22.35;nan
9474;BME280;8865;47.636;7.692;2022-07-23T02:00:59;98272.53;;;22.33;nan
9474;BME280;8865;47.636;7.692;2022-07-23T02:03:26;98281.59;;;22.32;nan
9474;BME280;8865;47.636;7.692;2022-07-23T02:05:52;98277.06;;;22.32;nan
9474;BME280;8865;47.636;7.692;2022-07-23T02:08:18;98269.66;;;22.27;nan
9474;BME280;8865;47.636;7.692;2022-07-23T02:10:45;98288.34;;;22.21;nan
9474;BME280;8865;47.636;7.692;2022-07-23T02:13:11;98291.81;;;22.28;nan
9474;BME280;8865;47.636;7.692;2022-07-23T02:15:37;98275.41;;;22.24;nan
9474;BME280;8865;47.636;7.692;2022-07-23T02:18:06;98276.84;;;22.27;nan
9474;BME280;8865;47.636;7.692;2022-07-23T02:20:33;98304.13;;;22.29;nan
9474;BME280;8865;47.636;7.692;2022-07-23T02:23:00;98299.22;;;22.39;nan
9474;BME280;8865;47.636;7.692;2022-07-23T02:25:26;98308.88;;;22.40;nan
9474;BME280;8865;47.636;7.692;2022-07-23T02:27:51;98302.09;;;22.44;nan
9474;BME280;8865;47.636;7.692;2022-07-23T02:30:17;98291.78;;;22.61;nan
9474;BME280;8865;47.636;7.692;2022-07-23T02:32:43;98272.31;;;22.47;nan
9474;BME280;8865;47.636;7.692;2022-07-23T02:35:09;98256.72;;;22.44;nan
9474;BME280;8865;47.636;7.692;2022-07-23T02:37:35;98252.44;;;22.37;nan
9474;BME280;8865;47.636;7.692;2022-07-23T02:40:02;98271.09;;;22.30;nan
9474;BME280;8865;47.636;7.692;2022-07-23T02:42:28;98254.28;;;22.23;nan
9474;BME280;8865;47.636;7.692;2022-07-23T02:44:54;98264.34;;;22.21;nan
9474;BME280;8865;47.636;7.692;2022-07-23T02:47:20;98269.06;;;22.25;nan
9474;BME280;8865;47.636;7.692;2022-07-23T02:49:45;98317.69;;;22.27;nan
9474;BME280;8865;47.636;7.692;2022-07-23T02:52:12;98381.31;;;22.24;nan
9474;BME280;8865;47.636;7.692;2022-07-23T02:54:38;98395.69;;;22.16;nan
9474;BME280;8865;47.636;7.692;2022-07-23T02:57:04;98460.47;;;22.10;nan
9474;BME280;8865;47.636;7.692;2022-07-23T02:59:30;62625.06;;;-146.61;100.00
9474;BME280;8865;47.636;7.692;2022-07-23T03:01:57;62625.06;;;-146.61;100.00
9474;BME280;8865;47.636;7.692;2022-07-23T03:04:23;62625.06;;;-146.61;100.00
9474;BME280;8865;47.636;7.692;2022-07-23T03:06:49;62625.06;;;-146.61;100.00
9474;BME280;8865;47.636;7.692;2022-07-23T03:09:15;98223.94;;;36.78;nan
9474;BME280;8865;47.636;7.692;2022-07-23T03:11:41;98293.91;;;25.31;nan
9474;BME280;8865;47.636;7.692;2022-07-23T03:14:07;98383.75;;;22.86;nan
9474;BME280;8865;47.636;7.692;2022-07-23T03:16:33;98418.44;;;22.19;nan
9474;BME280;8865;47.636;7.692;2022-07-23T03:18:59;98416.94;;;21.89;nan
9474;BME280;8865;47.636;7.692;2022-07-23T03:21:25;98429.41;;;21.75;nan
9474;BME280;8865;47.636;7.692;2022-07-23T03:23:51;98448.47;;;21.66;nan
9474;BME280;8865;47.636;7.692;2022-07-23T03:26:17;98475.75;;;21.68;nan
9474;BME280;8865;47.636;7.692;2022-07-23T03:28:43;98521.28;;;21.73;nan
9474;BME280;8865;47.636;7.692;2022-07-23T03:31:09;98553.25;;;21.66;nan
9474;BME280;8865;47.636;7.692;2022-07-23T03:33:35;98573.31;;;21.62;nan
9474;BME280;8865;47.636;7.692;2022-07-23T03:36:01;62625.06;;;-146.61;100.00
9474;BME280;8865;47.636;7.692;2022-07-23T03:38:27;62625.06;;;-146.61;100.00
9474;BME280;8865;47.636;7.692;2022-07-23T03:40:54;62625.06;;;-146.61;100.00
9474;BME280;8865;47.636;7.692;2022-07-23T03:43:20;62625.06;;;-146.61;100.00
9474;BME280;8865;47.636;7.692;2022-07-23T03:45:46;98195.31;;;40.39;nan
9474;BME280;8865;47.636;7.692;2022-07-23T03:48:12;98269.50;;;25.03;nan
9474;BME280;8865;47.636;7.692;2022-07-23T03:50:38;98364.28;;;22.18;nan
9474;BME280;8865;47.636;7.692;2022-07-23T03:53:04;98410.59;;;21.35;nan
9474;BME280;8865;47.636;7.692;2022-07-23T03:55:30;98434.13;;;20.97;nan
9474;BME280;8865;47.636;7.692;2022-07-23T03:57:56;98450.78;;;20.77;nan
9474;BME280;8865;47.636;7.692;2022-07-23T04:00:22;98478.75;;;20.66;nan
9474;BME280;8865;47.636;7.692;2022-07-23T04:02:48;98486.66;;;20.60;nan
9474;BME280;8865;47.636;7.692;2022-07-23T04:05:14;98492.97;;;20.59;nan
9474;BME280;8865;47.636;7.692;2022-07-23T04:07:40;98500.34;;;20.57;nan
9474;BME280;8865;47.636;7.692;2022-07-23T04:10:06;98507.69;;;20.55;nan
9474;BME280;8865;47.636;7.692;2022-07-23T04:12:32;98509.53;;;20.54;nan
9474;BME280;8865;47.636;7.692;2022-07-23T04:14:58;98519.34;;;20.54;nan
9474;BME280;8865;47.636;7.692;2022-07-23T04:17:24;98524.88;;;20.52;nan
9474;BME280;8865;47.636;7.692;2022-07-23T04:19:51;98537.28;;;20.45;nan
9474;BME280;8865;47.636;7.692;2022-07-23T04:22:17;98546.63;;;20.41;nan
9474;BME280;8865;47.636;7.692;2022-07-23T04:24:43;98548.28;;;20.42;nan
9474;BME280;8865;47.636;7.692;2022-07-23T04:27:09;98549.75;;;20.44;nan
9474;BME280;8865;47.636;7.692;2022-07-23T04:29:35;98561.41;;;20.43;nan
9474;BME280;8865;47.636;7.692;2022-07-23T04:32:01;98565.19;;;20.34;nan
9474;BME280;8865;47.636;7.692;2022-07-23T04:34:27;98577.75;;;20.40;nan
9474;BME280;8865;47.636;7.692;2022-07-23T04:36:53;98583.97;;;20.47;nan
9474;BME280;8865;47.636;7.692;2022-07-23T04:39:19;98588.34;;;20.55;nan
9474;BME280;8865;47.636;7.692;2022-07-23T04:41:46;98587.59;;;20.61;nan
9474;BME280;8865;47.636;7.692;2022-07-23T04:44:12;98577.03;;;20.68;nan
9474;BME280;8865;47.636;7.692;2022-07-23T04:46:38;98569.50;;;20.72;nan
9474;BME280;8865;47.636;7.692;2022-07-23T04:49:04;98569.09;;;20.75;nan
9474;BME280;8865;47.636;7.692;2022-07-23T04:51:30;98571.38;;;20.78;nan
9474;BME280;8865;47.636;7.692;2022-07-23T04:53:56;98586.16;;;20.80;nan
9474;BME280;8865;47.636;7.692;2022-07-23T04:56:22;98590.34;;;20.90;nan
9474;BME280;8865;47.636;7.692;2022-07-23T04:58:48;98591.44;;;20.95;nan
9474;BME280;8865;47.636;7.692;2022-07-23T05:01:14;98588.19;;;21.00;nan
9474;BME280;8865;47.636;7.692;2022-07-23T05:03:40;98592.09;;;21.04;nan
9474;BME280;8865;47.636;7.692;2022-07-23T05:06:06;98596.63;;;21.03;nan
9474;BME280;8865;47.636;7.692;2022-07-23T05:08:32;98598.00;;;20.99;nan
9474;BME280;8865;47.636;7.692;2022-07-23T05:10:58;98575.94;;;21.05;nan
9474;BME280;8865;47.636;7.692;2022-07-23T05:13:24;98567.59;;;21.09;nan
9474;BME280;8865;47.636;7.692;2022-07-23T05:15:50;98562.69;;;21.12;nan
9474;BME280;8865;47.636;7.692;2022-07-23T05:20:45;98569.97;;;21.25;nan
9474;BME280;8865;47.636;7.692;2022-07-23T05:23:11;98573.69;;;21.31;nan
9474;BME280;8865;47.636;7.692;2022-07-23T05:25:37;98573.34;;;21.40;nan
9474;BME280;8865;47.636;7.692;2022-07-23T05:28:03;98583.88;;;21.49;nan
9474;BME280;8865;47.636;7.692;2022-07-23T05:30:29;98586.81;;;21.54;nan
9474;BME280;8865;47.636;7.692;2022-07-23T05:32:55;98584.22;;;21.67;nan
9474;BME280;8865;47.636;7.692;2022-07-23T05:35:21;98592.06;;;21.75;nan
9474;BME280;8865;47.636;7.692;2022-07-23T05:37:47;98578.53;;;21.77;nan
9474;BME280;8865;47.636;7.692;2022-07-23T05:40:13;98574.78;;;21.71;nan
9474;BME280;8865;47.636;7.692;2022-07-23T05:42:40;98583.44;;;21.73;nan
9474;BME280;8865;47.636;7.692;2022-07-23T05:45:08;98568.66;;;21.71;nan
9474;BME280;8865;47.636;7.692;2022-07-23T05:47:45;98572.00;;;21.80;nan
9474;BME280;8865;47.636;7.692;2022-07-23T05:50:12;98587.41;;;21.84;nan
9474;BME280;8865;47.636;7.692;2022-07-23T05:52:39;98588.00;;;21.86;nan
9474;BME280;8865;47.636;7.692;2022-07-23T05:55:07;98583.28;;;21.88;nan
9474;BME280;8865;47.636;7.692;2022-07-23T05:57:33;98581.28;;;21.90;nan
9474;BME280;8865;47.636;7.692;2022-07-23T05:59:59;98583.88;;;21.84;nan
9474;BME280;8865;47.636;7.692;2022-07-23T06:02:25;98570.34;;;21.85;nan
9474;BME280;8865;47.636;7.692;2022-07-23T06:04:51;98558.69;;;21.86;nan
9474;BME280;8865;47.636;7.692;2022-07-23T06:07:17;98564.44;;;21.90;nan
9474;BME280;8865;47.636;7.692;2022-07-23T06:09:43;98568.56;;;21.92;nan
9474;BME280;8865;47.636;7.692;2022-07-23T06:12:09;98567.56;;;22.00;nan
9474;BME280;8865;47.636;7.692;2022-07-23T06:14:35;98568.44;;;22.07;nan
9474;BME280;8865;47.636;7.692;2022-07-23T06:17:01;98565.78;;;22.14;nan
9474;BME280;8865;47.636;7.692;2022-07-23T06:19:27;98558.63;;;22.21;nan
9474;BME280;8865;47.636;7.692;2022-07-23T06:21:53;98559.47;;;22.28;nan
9474;BME280;8865;47.636;7.692;2022-07-23T06:24:19;98550.50;;;22.36;nan
9474;BME280;8865;47.636;7.692;2022-07-23T06:26:45;98531.41;;;22.39;nan
9474;BME280;8865;47.636;7.692;2022-07-23T06:29:11;98510.03;;;22.33;nan
9474;BME280;8865;47.636;7.692;2022-07-23T06:31:37;98517.88;;;22.41;nan
9474;BME280;8865;47.636;7.692;2022-07-23T06:34:03;98526.69;;;22.48;nan
9474;BME280;8865;47.636;7.692;2022-07-23T06:36:29;98518.31;;;22.58;nan
9474;BME280;8865;47.636;7.692;2022-07-23T06:38:55;98519.34;;;22.70;nan
9474;BME280;8865;47.636;7.692;2022-07-23T06:41:21;98510.09;;;22.93;nan
9474;BME280;8865;47.636;7.692;2022-07-23T06:43:48;98513.81;;;23.12;nan
9474;BME280;8865;47.636;7.692;2022-07-23T06:46:14;98525.72;;;23.23;nan
9474;BME280;8865;47.636;7.692;2022-07-23T06:48:40;98512.38;;;23.23;nan
9474;BME280;8865;47.636;7.692;2022-07-23T06:51:06;98508.28;;;23.13;nan
9474;BME280;8865;47.636;7.692;2022-07-23T06:53:32;98494.28;;;23.11;nan
9474;BME280;8865;47.636;7.692;2022-07-23T06:55:58;98493.03;;;23.07;nan
9474;BME280;8865;47.636;7.692;2022-07-23T06:58:24;98501.03;;;23.00;nan
9474;BME280;8865;47.636;7.692;2022-07-23T07:00:50;98514.41;;;23.00;nan
9474;BME280;8865;47.636;7.692;2022-07-23T07:03:17;98511.53;;;22.95;nan
9474;BME280;8865;47.636;7.692;2022-07-23T07:05:44;98491.41;;;22.86;nan
9474;BME280;8865;47.636;7.692;2022-07-23T07:08:10;98527.56;;;22.89;nan
9474;BME280;8865;47.636;7.692;2022-07-23T07:10:36;98560.28;;;23.11;nan
9474;BME280;8865;47.636;7.692;2022-07-23T07:13:02;98510.72;;;23.28;nan
9474;BME280;8865;47.636;7.692;2022-07-23T07:15:28;98497.91;;;23.50;nan
9474;BME280;8865;47.636;7.692;2022-07-23T07:17:54;98501.94;;;23.80;nan
9474;BME280;8865;47.636;7.692;2022-07-23T07:20:20;98484.09;;;24.12;nan
9474;BME280;8865;47.636;7.692;2022-07-23T07:22:46;98486.66;;;24.39;nan
9474;BME280;8865;47.636;7.692;2022-07-23T07:25:12;98470.88;;;24.56;nan
9474;BME280;8865;47.636;7.692;2022-07-23T07:27:38;98469.59;;;24.65;nan
9474;BME280;8865;47.636;7.692;2022-07-23T07:30:05;98461.94;;;24.69;nan
9474;BME280;8865;47.636;7.692;2022-07-23T07:32:31;98473.63;;;24.74;nan
9474;BME280;8865;47.636;7.692;2022-07-23T07:34:58;98482.19;;;24.83;nan
9474;BME280;8865;47.636;7.692;2022-07-23T07:37:24;98486.34;;;25.04;nan
9474;BME280;8865;47.636;7.692;2022-07-23T07:39:50;98467.59;;;25.29;nan
9474;BME280;8865;47.636;7.692;2022-07-23T07:42:16;98460.25;;;25.55;nan
9474;BME280;8865;47.636;7.692;2022-07-23T07:44:42;98472.50;;;25.70;nan
9474;BME280;8865;47.636;7.692;2022-07-23T07:47:08;98478.44;;;25.72;nan
9474;BME280;8865;47.636;7.692;2022-07-23T07:49:34;98472.72;;;25.68;nan
9474;BME280;8865;47.636;7.692;2022-07-23T07:52:00;98447.03;;;25.60;nan
9474;BME280;8865;47.636;7.692;2022-07-23T07:54:26;98458.66;;;25.54;nan
9474;BME280;8865;47.636;7.692;2022-07-23T07:56:52;98463.56;;;25.57;nan
9474;BME280;8865;47.636;7.692;2022-07-23T07:59:18;98457.44;;;25.69;nan
9474;BME280;8865;47.636;7.692;2022-07-23T08:01:44;98442.22;;;25.81;nan
9474;BME280;8865;47.636;7.692;2022-07-23T08:04:10;98445.19;;;25.91;nan
9474;BME280;8865;47.636;7.692;2022-07-23T08:06:36;98457.31;;;25.94;nan
9474;BME280;8865;47.636;7.692;2022-07-23T08:09:02;98460.59;;;25.96;nan
9474;BME280;8865;47.636;7.692;2022-07-23T08:11:28;98468.13;;;26.06;nan
9474;BME280;8865;47.636;7.692;2022-07-23T08:13:54;98473.56;;;26.29;nan
9474;BME280;8865;47.636;7.692;2022-07-23T08:16:20;98443.75;;;26.61;nan
9474;BME280;8865;47.636;7.692;2022-07-23T08:18:46;98441.34;;;26.83;nan
9474;BME280;8865;47.636;7.692;2022-07-23T08:21:12;98428.03;;;27.00;nan
9474;BME280;8865;47.636;7.692;2022-07-23T08:23:38;98433.69;;;27.27;nan
9474;BME280;8865;47.636;7.692;2022-07-23T08:26:04;98434.97;;;27.49;nan
9474;BME280;8865;47.636;7.692;2022-07-23T08:28:30;98426.41;;;27.64;nan
9474;BME280;8865;47.636;7.692;2022-07-23T08:30:59;98433.25;;;27.83;nan
9474;BME280;8865;47.636;7.692;2022-07-23T08:33:25;98436.34;;;27.63;nan
9474;BME280;8865;47.636;7.692;2022-07-23T08:35:51;98441.56;;;27.82;nan
9474;BME280;8865;47.636;7.692;2022-07-23T08:38:21;98435.78;;;27.90;nan
9474;BME280;8865;47.636;7.692;2022-07-23T08:40:50;98437.22;;;27.80;nan
9474;BME280;8865;47.636;7.692;2022-07-23T08:43:18;98432.72;;;27.57;nan
9474;BME280;8865;47.636;7.692;2022-07-23T08:45:47;98424.94;;;27.32;nan
9474;BME280;8865;47.636;7.692;2022-07-23T08:48:18;98437.81;;;27.42;nan
9474;BME280;8865;47.636;7.692;2022-07-23T08:50:47;98436.94;;;27.53;nan
9474;BME280;8865;47.636;7.692;2022-07-23T08:53:14;98440.47;;;27.54;nan
9474;BME280;8865;47.636;7.692;2022-07-23T08:55:44;98450.28;;;27.60;nan
9474;BME280;8865;47.636;7.692;2022-07-23T08:58:10;98443.94;;;27.66;nan
9474;BME280;8865;47.636;7.692;2022-07-23T09:00:36;98447.59;;;27.60;nan
9474;BME280;8865;47.636;7.692;2022-07-23T09:03:02;98444.13;;;27.48;nan
9474;BME280;8865;47.636;7.692;2022-07-23T09:05:29;98438.63;;;27.42;nan
9474;BME280;8865;47.636;7.692;2022-07-23T09:10:30;98436.97;;;27.30;nan
9474;BME280;8865;47.636;7.692;2022-07-23T09:12:57;98430.72;;;27.00;nan
9474;BME280;8865;47.636;7.692;2022-07-23T09:15:23;98439.91;;;27.04;nan
9474;BME280;8865;47.636;7.692;2022-07-23T09:17:49;98424.50;;;27.12;nan
9474;BME280;8865;47.636;7.692;2022-07-23T09:20:16;98428.34;;;27.16;nan
9474;BME280;8865;47.636;7.692;2022-07-23T09:22:46;98433.72;;;27.04;nan
9474;BME280;8865;47.636;7.692;2022-07-23T09:25:18;98430.69;;;27.12;nan
9474;BME280;8865;47.636;7.692;2022-07-23T09:27:56;98422.03;;;27.22;nan
9474;BME280;8865;47.636;7.692;2022-07-23T09:30:27;98410.44;;;27.33;nan
9474;BME280;8865;47.636;7.692;2022-07-23T09:33:14;98412.97;;;27.52;nan
9474;BME280;8865;47.636;7.692;2022-07-23T09:35:52;98430.88;;;27.87;nan
9474;BME280;8865;47.636;7.692;2022-07-23T09:38:23;98436.50;;;28.14;nan
9474;BME280;8865;47.636;7.692;2022-07-23T09:41:09;98431.41;;;28.29;nan
9474;BME280;8865;47.636;7.692;2022-07-23T09:43:35;98422.09;;;28.37;nan
9474;BME280;8865;47.636;7.692;2022-07-23T09:46:24;98413.03;;;28.43;nan
9474;BME280;8865;47.636;7.692;2022-07-23T09:48:51;98418.16;;;28.28;nan
9474;BME280;8865;47.636;7.692;2022-07-23T09:51:18;98423.69;;;28.21;nan
9474;BME280;8865;47.636;7.692;2022-07-23T09:54:02;98431.22;;;28.19;nan
9474;BME280;8865;47.636;7.692;2022-07-23T09:56:28;98434.69;;;28.03;nan
9474;BME280;8865;47.636;7.692;2022-07-23T09:58:55;98435.03;;;28.06;nan
9474;BME280;8865;47.636;7.692;2022-07-23T10:01:32;98428.41;;;27.97;nan
9474;BME280;8865;47.636;7.692;2022-07-23T10:03:59;98431.03;;;28.09;nan
9474;BME280;8865;47.636;7.692;2022-07-23T10:06:26;98427.22;;;28.22;nan
9474;BME280;8865;47.636;7.692;2022-07-23T10:08:55;98433.84;;;28.31;nan
9474;BME280;8865;47.636;7.692;2022-07-23T10:11:23;98442.06;;;28.41;nan
9474;BME280;8865;47.636;7.692;2022-07-23T10:13:50;98434.03;;;28.58;nan
9474;BME280;8865;47.636;7.692;2022-07-23T10:16:16;98437.38;;;28.65;nan
9474;BME280;8865;47.636;7.692;2022-07-23T10:18:42;98435.53;;;28.66;nan
9474;BME280;8865;47.636;7.692;2022-07-23T10:21:09;98444.69;;;28.53;nan
9474;BME280;8865;47.636;7.692;2022-07-23T10:23:51;98440.81;;;28.61;nan
9474;BME280;8865;47.636;7.692;2022-07-23T10:26:35;98447.16;;;28.55;nan
9474;BME280;8865;47.636;7.692;2022-07-23T10:29:24;98433.31;;;28.63;nan
9474;BME280;8865;47.636;7.692;2022-07-23T10:32:01;98436.03;;;29.02;nan
9474;BME280;8865;47.636;7.692;2022-07-23T10:34:42;98430.75;;;29.73;nan
9474;BME280;8865;47.636;7.692;2022-07-23T10:37:37;98433.75;;;30.59;nan
9474;BME280;8865;47.636;7.692;2022-07-23T10:40:21;98424.81;;;30.96;nan
9474;BME280;8865;47.636;7.692;2022-07-23T10:42:50;98422.19;;;31.01;nan
9474;BME280;8865;47.636;7.692;2022-07-23T10:45:33;98430.41;;;31.27;nan
9474;BME280;8865;47.636;7.692;2022-07-23T10:48:17;98432.91;;;31.39;nan
9474;BME280;8865;47.636;7.692;2022-07-23T10:51:05;98436.09;;;30.83;nan
9474;BME280;8865;47.636;7.692;2022-07-23T10:56:48;98428.41;;;31.02;nan
9474;BME280;8865;47.636;7.692;2022-07-23T10:59:04;98431.50;;;31.26;nan
9474;BME280;8865;47.636;7.692;2022-07-23T11:01:40;98423.84;;;31.65;nan
9474;BME280;8865;47.636;7.692;2022-07-23T11:04:06;98419.34;;;32.28;nan
9474;BME280;8865;47.636;7.692;2022-07-23T11:09:28;98421.81;;;32.39;nan
9474;BME280;8865;47.636;7.692;2022-07-23T11:15:09;98426.94;;;32.36;nan
9474;BME280;8865;47.636;7.692;2022-07-23T11:17:38;98418.53;;;32.37;nan
9474;BME280;8865;47.636;7.692;2022-07-23T11:20:16;98419.06;;;32.60;nan
9474;BME280;8865;47.636;7.692;2022-07-23T11:25:33;98417.31;;;33.31;nan
9474;BME280;8865;47.636;7.692;2022-07-23T11:28:17;98415.59;;;34.06;nan
9474;BME280;8865;47.636;7.692;2022-07-23T11:30:44;98412.59;;;34.47;nan
9474;BME280;8865;47.636;7.692;2022-07-23T11:35:39;98405.34;;;33.92;nan
9474;BME280;8865;47.636;7.692;2022-07-23T11:38:28;98398.00;;;34.62;nan
9474;BME280;8865;47.636;7.692;2022-07-23T11:40:54;98400.59;;;35.07;nan
9474;BME280;8865;47.636;7.692;2022-07-23T11:43:22;98399.72;;;35.11;nan
9474;BME280;8865;47.636;7.692;2022-07-23T11:45:50;98399.00;;;35.49;nan
9474;BME280;8865;47.636;7.692;2022-07-23T11:48:25;98401.41;;;35.69;nan
9474;BME280;8865;47.636;7.692;2022-07-23T11:50:52;98395.38;;;35.34;nan
9474;BME280;8865;47.636;7.692;2022-07-23T11:53:27;98402.31;;;34.68;nan
9474;BME280;8865;47.636;7.692;2022-07-23T11:55:53;98396.91;;;34.92;nan
9474;BME280;8865;47.636;7.692;2022-07-23T11:58:21;98393.19;;;34.88;nan
9474;BME280;8865;47.636;7.692;2022-07-23T12:00:47;98396.63;;;35.42;nan
9474;BME280;8865;47.636;7.692;2022-07-23T12:03:13;98395.09;;;36.12;nan
9474;BME280;8865;47.636;7.692;2022-07-23T12:05:40;98392.38;;;36.78;nan
9474;BME280;8865;47.636;7.692;2022-07-23T12:08:08;98382.28;;;37.20;nan
9474;BME280;8865;47.636;7.692;2022-07-23T12:10:43;98383.75;;;37.54;nan
9474;BME280;8865;47.636;7.692;2022-07-23T12:13:14;98384.03;;;38.03;nan
9474;BME280;8865;47.636;7.692;2022-07-23T12:15:47;98384.81;;;38.49;nan
9474;BME280;8865;47.636;7.692;2022-07-23T12:18:19;98377.78;;;37.52;nan
9474;BME280;8865;47.636;7.692;2022-07-23T12:20:48;98379.28;;;37.95;nan
9474;BME280;8865;47.636;7.692;2022-07-23T12:23:17;98374.38;;;38.05;nan
9474;BME280;8865;47.636;7.692;2022-07-23T12:25:45;98380.78;;;39.18;nan
9474;BME280;8865;47.636;7.692;2022-07-23T12:30:41;98376.00;;;40.37;nan
9474;BME280;8865;47.636;7.692;2022-07-23T12:33:10;98371.50;;;39.89;nan
9474;BME280;8865;47.636;7.692;2022-07-23T12:35:43;98365.53;;;40.22;nan
9474;BME280;8865;47.636;7.692;2022-07-23T12:38:12;98370.56;;;40.11;nan
9474;BME280;8865;47.636;7.692;2022-07-23T12:40:59;98367.84;;;39.85;nan
9474;BME280;8865;47.636;7.692;2022-07-23T12:43:36;98367.81;;;39.76;nan
9474;BME280;8865;47.636;7.692;2022-07-23T12:46:28;98367.66;;;39.81;nan
9474;BME280;8865;47.636;7.692;2022-07-23T12:48:59;98367.16;;;40.87;nan
9474;BME280;8865;47.636;7.692;2022-07-23T12:51:29;98364.63;;;40.65;nan
9474;BME280;8865;47.636;7.692;2022-07-23T12:54:06;98358.53;;;41.70;nan
9474;BME280;8865;47.636;7.692;2022-07-23T12:56:35;98359.38;;;41.19;nan
9474;BME280;8865;47.636;7.692;2022-07-23T12:59:05;98355.22;;;42.31;nan
9474;BME280;8865;47.636;7.692;2022-07-23T13:01:39;98354.06;;;42.90;nan
9474;BME280;8865;47.636;7.692;2022-07-23T13:06:40;98348.09;;;41.84;nan
9474;BME280;8865;47.636;7.692;2022-07-23T13:09:08;98344.88;;;41.61;nan
9474;BME280;8865;47.636;7.692;2022-07-23T13:11:35;98346.22;;;41.55;nan
9474;BME280;8865;47.636;7.692;2022-07-23T13:14:01;98347.34;;;41.03;nan
9474;BME280;8865;47.636;7.692;2022-07-23T13:16:28;98345.69;;;40.16;nan
9474;BME280;8865;47.636;7.692;2022-07-23T13:18:55;98348.41;;;39.20;nan
9474;BME280;8865;47.636;7.692;2022-07-23T13:21:25;98348.78;;;37.79;nan
9474;BME280;8865;47.636;7.692;2022-07-23T13:23:51;98338.59;;;36.92;nan
9474;BME280;8865;47.636;7.692;2022-07-23T13:26:18;98347.25;;;37.22;nan
9474;BME280;8865;47.636;7.692;2022-07-23T13:28:44;98338.09;;;37.91;nan
9474;BME280;8865;47.636;7.692;2022-07-23T13:31:10;98351.66;;;39.39;nan
9474;BME280;8865;47.636;7.692;2022-07-23T13:33:36;98341.81;;;41.12;nan
9474;BME280;8865;47.636;7.692;2022-07-23T13:36:03;98344.94;;;42.40;nan
9474;BME280;8865;47.636;7.692;2022-07-23T13:38:29;98342.06;;;43.35;nan
9474;BME280;8865;47.636;7.692;2022-07-23T13:40:55;98337.88;;;43.95;nan
9474;BME280;8865;47.636;7.692;2022-07-23T13:43:23;98333.09;;;43.79;nan
9474;BME280;8865;47.636;7.692;2022-07-23T13:45:51;98334.06;;;44.44;nan
9474;BME280;8865;47.636;7.692;2022-07-23T13:48:17;98341.06;;;44.25;nan
9474;BME280;8865;47.636;7.692;2022-07-23T13:50:45;98331.38;;;44.03;nan
9474;BME280;8865;47.636;7.692;2022-07-23T13:53:14;98335.09;;;43.66;nan
9474;BME280;8865;47.636;7.692;2022-07-23T13:55:41;98335.91;;;42.77;nan
9474;BME280;8865;47.636;7.692;2022-07-23T13:58:08;98337.63;;;40.67;nan
9474;BME280;8865;47.636;7.692;2022-07-23T14:00:37;98338.94;;;40.13;nan
9474;BME280;8865;47.636;7.692;2022-07-23T14:03:03;98341.84;;;39.73;nan
9474;BME280;8865;47.636;7.692;2022-07-23T14:05:30;98328.50;;;38.02;nan
9474;BME280;8865;47.636;7.692;2022-07-23T14:07:56;98335.00;;;37.20;nan
9474;BME280;8865;47.636;7.692;2022-07-23T14:10:23;98328.88;;;37.28;nan